createdAt,value
2023-03-21T00:01:45.051Z,0
2023-03-21T00:06:45.088Z,0
2023-03-21T00:11:45.081Z,0
2023-03-21T00:16:45.122Z,0
2023-03-21T00:21:59.445Z,0
2023-03-21T00:26:45.127Z,0
2023-03-21T00:31:45.059Z,0
2023-03-21T00:36:45.120Z,0
2023-03-21T00:41:45.126Z,0
2023-03-21T00:47:00.658Z,0
2023-03-21T00:51:45.036Z,0
2023-03-21T00:56:45.108Z,0
2023-03-21T01:01:45.106Z,0
2023-03-21T01:06:45.090Z,0
2023-03-21T01:11:45.028Z,0
2023-03-21T01:16:45.065Z,0
2023-03-21T01:21:45.055Z,0
2023-03-21T01:26:45.081Z,0
2023-03-21T01:31:45.107Z,0
2023-03-21T01:36:45.338Z,0
2023-03-21T01:41:45.303Z,0
2023-03-21T01:46:54.274Z,0
2023-03-21T01:51:45.271Z,0
2023-03-21T01:56:45.261Z,0
2023-03-21T02:01:45.283Z,0
2023-03-21T02:06:45.274Z,0
2023-03-21T02:11:45.254Z,0
2023-03-21T02:16:45.276Z,0
2023-03-21T02:21:45.277Z,0
2023-03-21T02:26:48.140Z,0
2023-03-21T02:31:45.308Z,0
2023-03-21T02:36:45.296Z,0
2023-03-21T02:41:45.225Z,0
2023-03-21T02:46:49.137Z,0
2023-03-21T02:51:45.233Z,0
2023-03-21T02:56:45.239Z,0
2023-03-21T03:01:45.347Z,0
2023-03-21T03:06:45.265Z,0
2023-03-21T03:11:45.246Z,0
2023-03-21T03:16:45.214Z,0
2023-03-21T03:21:45.238Z,0
2023-03-21T03:26:45.276Z,0
2023-03-21T03:31:45.260Z,0
2023-03-21T03:36:45.248Z,0
2023-03-21T03:42:05.790Z,0
2023-03-21T03:46:45.291Z,0
2023-03-21T03:51:45.224Z,0
2023-03-21T03:56:45.208Z,0
2023-03-21T04:01:45.934Z,0
2023-03-21T04:06:45.758Z,0
2023-03-21T04:11:45.730Z,0
2023-03-21T04:16:45.765Z,0
2023-03-21T04:21:45.742Z,0
2023-03-21T04:26:45.891Z,0
2023-03-21T04:31:45.785Z,0
2023-03-21T04:36:45.727Z,0
2023-03-21T04:41:45.719Z,0
2023-03-21T04:46:45.771Z,0
2023-03-21T04:51:45.754Z,0
2023-03-21T04:56:45.706Z,0
2023-03-21T05:01:45.728Z,0
2023-03-21T05:06:45.736Z,0
2023-03-21T05:11:45.731Z,0
2023-03-21T05:16:45.760Z,0
2023-03-21T05:21:45.722Z,0
2023-03-21T05:26:45.734Z,0
2023-03-21T05:31:45.706Z,0
2023-03-21T05:36:45.706Z,2
2023-03-21T05:41:45.730Z,2
2023-03-21T05:46:45.723Z,3
2023-03-21T05:51:45.714Z,4
2023-03-21T05:56:45.700Z,7
2023-03-21T06:01:45.724Z,7
2023-03-21T06:06:45.716Z,8
2023-03-21T06:11:45.718Z,8
2023-03-21T06:16:45.704Z,12
2023-03-21T06:21:45.688Z,14
2023-03-21T06:26:45.695Z,15
2023-03-21T06:31:45.693Z,18
2023-03-21T06:36:45.674Z,21
2023-03-21T06:41:45.681Z,21
2023-03-21T06:46:45.732Z,29
2023-03-21T06:51:45.698Z,32
2023-03-21T06:56:45.670Z,30
2023-03-21T07:01:45.710Z,36
2023-03-21T07:06:45.687Z,50
2023-03-21T07:11:45.655Z,65
2023-03-21T07:16:45.910Z,72
2023-03-21T07:17:49.788Z,75
2023-03-21T07:21:45.952Z,93
2023-03-21T07:26:45.940Z,101
2023-03-21T07:31:45.956Z,82
2023-03-21T07:34:31.452Z,94
2023-03-21T07:35:28.781Z,97
2023-03-21T07:36:45.906Z,96
2023-03-21T07:41:45.929Z,76
2023-03-21T07:45:48.992Z,65
2023-03-21T07:46:45.903Z,63
2023-03-21T07:51:45.891Z,57
2023-03-21T07:56:45.905Z,49
2023-03-21T08:01:45.909Z,47
2023-03-21T08:06:45.881Z,53
2023-03-21T08:11:45.884Z,61
2023-03-21T08:16:45.940Z,74
2023-03-21T08:21:45.942Z,76
2023-03-21T08:26:45.897Z,96
2023-03-21T08:31:45.912Z,107
2023-03-21T08:36:45.874Z,98
2023-03-21T08:40:14.037Z,95
2023-03-21T08:40:40.357Z,94
2023-03-21T08:41:41.215Z,102
2023-03-21T08:41:45.838Z,102
2023-03-21T08:42:00.166Z,102
2023-03-21T08:42:16.229Z,104
2023-03-21T08:42:41.092Z,108
2023-03-21T08:43:26.250Z,111
2023-03-21T08:44:14.191Z,112
2023-03-21T08:46:38.119Z,117
2023-03-21T08:46:45.837Z,118
2023-03-21T08:47:05.597Z,121
2023-03-21T08:51:45.881Z,130
2023-03-21T08:52:03.814Z,128
2023-03-21T08:56:45.932Z,167
2023-03-21T09:01:45.923Z,141
2023-03-21T09:06:45.878Z,89
2023-03-21T09:11:45.874Z,65
2023-03-21T09:16:45.898Z,70
2023-03-21T09:21:45.894Z,103
2023-03-21T09:26:45.881Z,106
2023-03-21T09:28:36.285Z,117
2023-03-21T09:29:06.277Z,121
2023-03-21T09:29:23.612Z,122
2023-03-21T09:31:45.877Z,108
2023-03-21T09:36:45.908Z,98
2023-03-21T09:41:45.868Z,80
2023-03-21T09:46:46.042Z,97
2023-03-21T09:51:45.894Z,97
2023-03-21T09:56:45.911Z,98
2023-03-21T10:01:45.875Z,112
2023-03-21T10:06:45.884Z,114
2023-03-21T10:11:45.836Z,115
2023-03-21T10:13:03.064Z,135
2023-03-21T10:16:45.979Z,134
2023-03-21T10:22:03.277Z,141
2023-03-21T10:26:45.827Z,118
2023-03-21T10:31:45.968Z,103
2023-03-21T10:36:45.857Z,101
2023-03-21T10:41:45.831Z,148
2023-03-21T10:46:46.333Z,197
2023-03-21T10:51:46.286Z,188
2023-03-21T10:56:46.091Z,190
2023-03-21T11:01:46.166Z,189
2023-03-21T11:06:46.107Z,195
2023-03-21T11:11:46.101Z,203
2023-03-21T11:16:46.246Z,200
2023-03-21T11:21:46.060Z,186
2023-03-21T11:26:46.101Z,205
2023-03-21T11:31:46.094Z,206
2023-03-21T11:36:46.067Z,215
2023-03-21T11:41:46.369Z,163
2023-03-21T11:46:46.337Z,85
2023-03-21T11:51:46.419Z,111
2023-03-21T11:56:46.329Z,119
2023-03-21T12:01:46.306Z,106
2023-03-21T12:06:46.327Z,123
2023-03-21T12:07:22.339Z,142
2023-03-21T12:11:46.303Z,157
2023-03-21T12:16:46.313Z,168
2023-03-21T12:21:46.327Z,171
2023-03-21T12:26:46.357Z,145
2023-03-21T12:27:53.987Z,110
2023-03-21T12:31:46.386Z,120
2023-03-21T12:32:19.403Z,127
2023-03-21T12:33:02.234Z,120
2023-03-21T12:36:46.277Z,108
2023-03-21T12:40:32.345Z,84
2023-03-21T12:40:37.548Z,73
2023-03-21T12:41:46.311Z,74
2023-03-21T12:42:11.061Z,77
2023-03-21T12:46:46.407Z,80
2023-03-21T12:51:46.309Z,96
2023-03-21T12:56:46.313Z,112
2023-03-21T13:01:46.420Z,131
2023-03-21T13:06:46.284Z,130
2023-03-21T13:11:46.316Z,139
2023-03-21T13:16:46.391Z,115
2023-03-21T13:21:46.429Z,104
2023-03-21T13:26:46.271Z,116
2023-03-21T13:31:51.889Z,135
2023-03-21T13:36:46.280Z,139
2023-03-21T13:41:46.417Z,128
2023-03-21T13:46:53.821Z,138
2023-03-21T13:46:53.834Z,144
2023-03-21T13:47:05.320Z,138
2023-03-21T13:51:46.284Z,131
2023-03-21T13:56:46.278Z,161
2023-03-21T13:58:36.266Z,167
2023-03-21T14:00:47.854Z,182
2023-03-21T14:01:46.287Z,181
2023-03-21T14:02:49.704Z,168
2023-03-21T14:06:46.361Z,139
2023-03-21T14:11:46.966Z,126
2023-03-21T14:16:46.418Z,142
2023-03-21T14:21:46.288Z,132
2023-03-21T14:26:46.312Z,120
2023-03-21T14:31:46.262Z,112
2023-03-21T14:36:31.273Z,101
2023-03-21T14:36:55.372Z,102
2023-03-21T14:37:04.998Z,96
2023-03-21T14:37:12.405Z,96
2023-03-21T14:38:02.324Z,97
2023-03-21T14:39:16.858Z,100
2023-03-21T14:40:37.444Z,113
2023-03-21T14:41:46.255Z,120
2023-03-21T14:41:51.168Z,126
2023-03-21T14:42:28.229Z,125
2023-03-21T14:43:17.473Z,128
2023-03-21T14:43:45.555Z,128
2023-03-21T14:45:31.243Z,129
2023-03-21T14:46:46.273Z,126
2023-03-21T14:47:15.797Z,121
2023-03-21T14:47:43.197Z,120
2023-03-21T14:47:50.003Z,119
2023-03-21T14:50:07.269Z,108
2023-03-21T14:51:46.385Z,104
2023-03-21T14:51:53.739Z,103
2023-03-21T14:54:26.963Z,92
2023-03-21T14:56:27.941Z,81
2023-03-21T14:56:46.254Z,81
2023-03-21T15:01:46.275Z,99
2023-03-21T15:03:17.356Z,107
2023-03-21T15:04:22.532Z,106
2023-03-21T15:04:57.685Z,105
2023-03-21T15:05:33.782Z,105
2023-03-21T15:06:46.226Z,102
2023-03-21T15:11:46.367Z,86
2023-03-21T15:14:35.297Z,71
2023-03-21T15:15:55.583Z,66
2023-03-21T15:16:46.282Z,65
2023-03-21T15:18:55.742Z,60
2023-03-21T15:20:13.937Z,61
2023-03-21T15:21:46.280Z,62
2023-03-21T15:22:54.805Z,61
2023-03-21T15:26:46.235Z,59
2023-03-21T15:31:46.437Z,52
2023-03-21T15:32:52.981Z,49
2023-03-21T15:33:58.253Z,47
2023-03-21T15:36:46.222Z,47
2023-03-21T15:39:32.028Z,44
2023-03-21T15:39:59.030Z,43
2023-03-21T15:41:46.203Z,44
2023-03-21T15:42:07.209Z,45
2023-03-21T15:43:20.065Z,45
2023-03-21T15:45:55.758Z,45
2023-03-21T15:46:18.151Z,45
2023-03-21T15:46:46.335Z,45
2023-03-21T15:46:56.326Z,44
2023-03-21T15:47:37.620Z,45
2023-03-21T15:51:46.277Z,47
2023-03-21T15:56:47.051Z,48
2023-03-21T16:01:47.101Z,36
2023-03-21T16:06:47.162Z,36
2023-03-21T16:11:47.037Z,39
2023-03-21T16:13:05.221Z,36
2023-03-21T16:13:24.364Z,34
2023-03-21T16:15:09.174Z,33
2023-03-21T16:16:47.136Z,33
2023-03-21T16:20:30.919Z,29
2023-03-21T16:21:47.051Z,28
2023-03-21T16:26:47.032Z,24
2023-03-21T16:31:47.088Z,19
2023-03-21T16:34:10.426Z,17
2023-03-21T16:34:52.712Z,17
2023-03-21T16:36:47.031Z,18
2023-03-21T16:39:52.539Z,24
2023-03-21T16:41:05.067Z,27
2023-03-21T16:41:47.004Z,27
2023-03-21T16:46:47.641Z,32
2023-03-21T16:51:47.012Z,36
2023-03-21T16:55:07.735Z,35
2023-03-21T16:55:26.360Z,34
2023-03-21T16:56:47.026Z,35
2023-03-21T16:59:47.176Z,34
2023-03-21T17:01:47.081Z,34
2023-03-21T17:06:47.038Z,27
2023-03-21T17:11:47.026Z,21
2023-03-21T17:16:47.071Z,19
2023-03-21T17:21:47.058Z,16
2023-03-21T17:26:47.041Z,16
2023-03-21T17:31:46.992Z,14
2023-03-21T17:36:47.024Z,12
2023-03-21T17:41:46.989Z,4
2023-03-21T17:46:48.499Z,0
2023-03-21T17:51:47.186Z,0
2023-03-21T17:56:46.995Z,0
2023-03-21T18:01:47.015Z,0
2023-03-21T18:06:47.128Z,0
2023-03-21T18:11:46.999Z,0
2023-03-21T18:16:47.111Z,0
2023-03-21T18:22:38.870Z,0
2023-03-21T18:27:56.906Z,0
2023-03-21T18:32:38.866Z,0
2023-03-21T18:37:39.080Z,0
2023-03-21T18:42:39.103Z,0
2023-03-21T18:45:47.543Z,0
2023-03-21T18:47:39.269Z,0
2023-03-21T18:48:35.469Z,0
2023-03-21T18:49:57.307Z,0
2023-03-21T18:50:13.981Z,0
2023-03-21T18:52:39.900Z,0
2023-03-21T18:53:42.614Z,0
2023-03-21T18:57:39.858Z,0
2023-03-21T19:02:45.448Z,0
2023-03-21T19:07:39.886Z,0
2023-03-21T19:12:39.858Z,0
2023-03-21T19:18:26.374Z,0
2023-03-21T19:22:39.919Z,0
2023-03-21T19:27:40.488Z,0
2023-03-21T19:32:42.644Z,0
2023-03-21T19:37:42.613Z,0
2023-03-21T19:38:06.548Z,0
2023-03-21T19:38:16.053Z,0
2023-03-21T19:38:34.589Z,0
2023-03-21T19:38:48.032Z,0
2023-03-21T19:42:44.829Z,0
2023-03-21T19:47:44.876Z,0
2023-03-21T19:52:44.859Z,0
2023-03-21T19:57:44.880Z,0
2023-03-21T20:02:44.857Z,0
2023-03-21T20:07:44.822Z,0
2023-03-21T20:12:44.834Z,0
2023-03-21T20:17:45.235Z,0
2023-03-21T20:23:10.882Z,0
2023-03-21T20:27:45.046Z,0
2023-03-21T20:32:45.309Z,0
2023-03-21T20:37:45.344Z,0
2023-03-21T20:42:48.521Z,0
2023-03-21T20:47:45.349Z,0
2023-03-21T20:53:01.063Z,0
2023-03-21T20:57:48.405Z,0
2023-03-21T21:02:45.308Z,0
2023-03-21T21:07:45.575Z,0
2023-03-21T21:12:45.564Z,0
2023-03-21T21:18:10.902Z,0
2023-03-21T21:22:46.041Z,0
2023-03-21T21:27:45.570Z,0
2023-03-21T21:32:45.585Z,0
2023-03-21T21:37:46.256Z,0
2023-03-21T21:42:46.203Z,0
2023-03-21T21:47:46.303Z,0
2023-03-21T21:52:46.180Z,0
2023-03-21T21:57:47.223Z,0
2023-03-21T22:02:47.250Z,0
2023-03-21T22:07:50.306Z,0
2023-03-21T22:12:50.366Z,0
2023-03-21T22:17:50.303Z,0
2023-03-21T22:22:50.318Z,0
2023-03-21T22:27:50.292Z,0
2023-03-21T22:33:02.731Z,0
2023-03-21T22:37:50.337Z,0
2023-03-21T22:42:50.317Z,0
2023-03-21T22:47:50.299Z,0
2023-03-21T22:52:50.315Z,0
2023-03-21T22:57:50.298Z,0
2023-03-21T23:02:50.301Z,0
2023-03-21T23:07:50.294Z,0
2023-03-21T23:12:50.339Z,0
2023-03-21T23:17:50.289Z,0
2023-03-21T23:22:50.294Z,0
2023-03-21T23:27:50.264Z,0
2023-03-21T23:32:50.290Z,0
2023-03-21T23:37:50.284Z,0
2023-03-21T23:42:50.256Z,0
2023-03-21T23:47:50.312Z,0
2023-03-21T23:52:50.301Z,0
2023-03-21T23:57:50.283Z,0
